createdAt,value
2023-04-29T00:03:20.088Z,11.92
2023-04-29T00:18:22.972Z,11.82
2023-04-29T00:33:26.101Z,11.73
2023-04-29T00:48:28.798Z,11.58
2023-04-29T01:03:32.536Z,11.41
2023-04-29T01:18:41.917Z,11.27
2023-04-29T01:33:56.163Z,11.11
2023-04-29T01:48:58.739Z,10.99
2023-04-29T02:04:01.559Z,10.95
2023-04-29T02:19:04.304Z,10.89
2023-04-29T02:34:06.973Z,10.84
2023-04-29T02:49:09.547Z,10.75
2023-04-29T03:04:12.374Z,10.72
2023-04-29T03:19:15.243Z,10.72
2023-04-29T03:34:17.855Z,10.73
2023-04-29T03:49:20.749Z,10.71
2023-04-29T04:04:23.735Z,10.69
2023-04-29T04:19:27.213Z,10.59
2023-04-29T04:34:30.059Z,10.63
2023-04-29T04:49:32.670Z,10.79
2023-04-29T05:04:35.518Z,10.88
2023-04-29T05:19:38.101Z,11.81
2023-04-29T05:34:40.771Z,12.68
2023-04-29T05:49:43.371Z,13.07
2023-04-29T06:04:47.794Z,13.99
2023-04-29T06:19:51.056Z,16.68
2023-04-29T06:34:54.018Z,19.87
2023-04-29T06:49:56.614Z,17.99
2023-04-29T07:05:00.052Z,16.47
2023-04-29T07:20:04.175Z,15.60
2023-04-29T07:35:07.125Z,14.93
2023-04-29T07:50:10.424Z,14.59
2023-04-29T08:05:13.382Z,14.42
2023-04-29T08:20:16.485Z,14.22
2023-04-29T08:35:19.272Z,13.92
2023-04-29T08:50:23.732Z,13.59
2023-04-29T09:05:27.398Z,13.55
2023-04-29T09:20:30.982Z,13.73
2023-04-29T09:35:34.335Z,14.07
2023-04-29T09:50:44.252Z,15.53
2023-04-29T10:05:48.116Z,16.79
2023-04-29T10:20:51.381Z,17.47
2023-04-29T10:35:56.004Z,17.71
2023-04-29T10:50:59.067Z,18.17
2023-04-29T11:06:09.289Z,18.80
2023-04-29T11:21:12.872Z,19.67
2023-04-29T11:36:15.905Z,19.82
2023-04-29T11:51:22.615Z,20.81
2023-04-29T12:06:30.297Z,21.83
2023-04-29T12:21:34.509Z,21.16
2023-04-29T12:36:37.921Z,20.63
2023-04-29T12:51:40.746Z,20.12
2023-04-29T13:06:43.398Z,18.65
2023-04-29T13:21:46.887Z,18.52
2023-04-29T13:36:49.726Z,19.20
2023-04-29T14:06:58.206Z,20.08
2023-04-29T14:22:00.910Z,19.16
2023-04-29T14:37:03.615Z,18.54
2023-04-29T14:52:06.405Z,18.11
2023-04-29T15:07:09.267Z,18.36
2023-04-29T15:22:12.983Z,18.28
2023-04-29T15:37:15.870Z,16.13
2023-04-29T15:52:18.541Z,13.71
2023-04-29T16:07:21.179Z,13.25
2023-04-29T16:22:23.769Z,13.49
2023-04-29T16:37:26.317Z,13.60
2023-04-29T16:52:29.006Z,13.83
2023-04-29T17:07:31.839Z,13.70
2023-04-29T17:22:34.534Z,13.50
2023-04-29T17:37:37.220Z,13.21
2023-04-29T17:52:39.808Z,12.80
2023-04-29T18:07:42.402Z,12.49
2023-04-29T18:22:46.509Z,12.27
2023-04-29T18:37:49.278Z,12.15
2023-04-29T18:52:52.188Z,12.11
2023-04-29T19:07:54.788Z,11.99
2023-04-29T19:22:57.628Z,11.84
2023-04-29T19:38:00.374Z,11.76
2023-04-29T19:53:03.339Z,11.72
2023-04-29T20:08:07.229Z,11.73
2023-04-29T20:23:10.084Z,11.67
2023-04-29T20:38:12.718Z,11.61
2023-04-29T20:53:16.871Z,11.50
2023-04-29T21:08:45.047Z,11.43
2023-04-29T21:23:48.057Z,11.38
2023-04-29T21:38:52.781Z,11.35
2023-04-29T21:53:55.869Z,11.31
2023-04-29T22:08:58.458Z,11.16
2023-04-29T22:24:01.142Z,11.00
2023-04-29T22:39:03.823Z,10.89
2023-04-29T22:54:07.625Z,10.79
2023-04-29T23:09:10.301Z,10.71
2023-04-29T23:24:12.907Z,10.65
2023-04-29T23:39:15.624Z,10.58
2023-04-29T23:54:18.363Z,10.49
